| time (UTC) | temp F | wind direction | speed knots | gust knots | rain 1hr in | rain 24hr in | rain mn in | humidity % | barometer mb |
| 20260505201533 | 78 | 289 | 0.9 | 6.1 | 0.00 | 0.00 | 0.00 | 34 | 1015.0 |
| 20260505200018 | 78 | 233 | 1.7 | 3.5 | 0.00 | 0.00 | 0.00 | 35 | 1015.0 |
| 20260505194520 | 78 | 316 | 2.6 | 7.0 | 0.00 | 0.00 | 0.00 | 35 | 1015.2 |
| 20260505193020 | 78 | 251 | 0.9 | 4.3 | 0.00 | 0.00 | 0.00 | 36 | 1015.4 |
| 20260505191514 | 77 | 261 | 0.9 | 5.2 | 0.00 | 0.00 | 0.00 | 36 | 1015.4 |
| 20260505190015 | 77 | 264 | 1.7 | 3.5 | 0.00 | 0.00 | 0.00 | 35 | 1015.6 |
| 20260505184526 | 77 | 240 | 0.9 | 7.8 | 0.00 | 0.00 | 0.00 | 36 | 1015.8 |
| 20260505183027 | 77 | 265 | 1.7 | 4.3 | 0.00 | 0.00 | 0.00 | 34 | 1016.1 |
| 20260505181514 | 77 | 251 | 2.6 | 7.8 | 0.00 | 0.00 | 0.00 | 35 | 1016.6 |
| 20260505180012 | 76 | 244 | 1.7 | 3.5 | 0.00 | 0.00 | 0.00 | 39 | 1016.6 |
| 20260505174532 | 76 | 257 | 1.7 | 4.3 | 0.00 | 0.00 | 0.00 | 39 | 1016.9 |
| 20260505173028 | 76 | 234 | 0.9 | 3.5 | 0.00 | 0.00 | 0.00 | 36 | 1016.8 |
| 20260505171533 | 75 | 269 | 1.7 | 6.1 | 0.00 | 0.00 | 0.00 | 41 | 1016.8 |
| 20260505170012 | 75 | 241 | 0.9 | 7.0 | 0.00 | 0.00 | 0.00 | 42 | 1016.8 |
| 20260505164516 | 74 | 250 | 0.9 | 3.5 | 0.00 | 0.00 | 0.00 | 42 | 1016.8 |
| 20260505163021 | 74 | 206 | 1.7 | 5.2 | 0.00 | 0.00 | 0.00 | 45 | 1016.9 |
| 20260505161524 | 72 | 262 | 0.9 | 6.1 | 0.00 | 0.00 | 0.00 | 49 | 1017.2 |
| 20260505153033 | 69 | 259 | 0.9 | 4.3 | 0.00 | 0.00 | 0.00 | 56 | 1017.6 |
| 20260505151522 | 69 | 304 | 0.0 | 3.5 | 0.00 | 0.00 | 0.00 | 58 | 1017.8 |
| 20260505124526 | 60 | 248 | 0.0 | 2.6 | 0.00 | 0.00 | 0.00 | 76 | 1017.2 |
| 20260505123044 | 59 | 257 | 0.0 | 2.6 | 0.00 | 0.00 | 0.00 | 77 | 1017.0 |
| 20260505121528 | 58 | 240 | 0.9 | 2.6 | 0.00 | 0.00 | 0.00 | 78 | 1016.9 |
| 20260505120039 | 56 | 241 | 0.0 | 2.6 | 0.00 | 0.00 | 0.00 | 79 | 1016.7 |
| 20260505114521 | 55 | 244 | 0.0 | 0.9 | 0.00 | 0.00 | 0.00 | 81 | 1016.7 |
| 20260505113004 | 52 | 241 | 0.0 | 0.0 | 0.00 | 0.00 | 0.00 | 86 | 1016.7 |
| 20260505111508 | 51 | 241 | 0.0 | 0.0 | 0.00 | 0.00 | 0.00 | 85 | 1016.5 |
| 20260505101506 | 53 | 241 | 0.0 | 0.0 | 0.00 | 0.00 | 0.00 | 80 | 1016.3 |
| 20260505100011 | 54 | 241 | 0.0 | 0.9 | 0.00 | 0.00 | 0.00 | 79 | 1016.1 |
| 20260505094515 | 54 | 242 | 0.0 | 0.9 | 0.00 | 0.00 | 0.00 | 78 | 1016.2 |
| 20260505093020 | 54 | 251 | 0.0 | 0.0 | 0.00 | 0.00 | 0.00 | 78 | 1016.3 |
| 20260505091523 | 53 | 273 | 0.0 | 0.0 | 0.00 | 0.00 | 0.00 | 79 | 1016.0 |
| 20260505090026 | 53 | 273 | 0.0 | 0.0 | 0.00 | 0.00 | 0.00 | 80 | 1015.9 |
| 20260505084514 | 53 | 262 | 0.0 | 0.0 | 0.00 | 0.00 | 0.00 | 80 | 1015.8 |
| 20260505083019 | 53 | 262 | 0.0 | 0.0 | 0.00 | 0.00 | 0.00 | 78 | 1015.7 |
| 20260505081525 | 54 | 262 | 0.0 | 0.0 | 0.00 | 0.00 | 0.00 | 76 | 1015.7 |
| 20260505080028 | 55 | 262 | 0.0 | 0.0 | 0.00 | 0.00 | 0.00 | 74 | 1015.6 |
| 20260505074530 | 56 | 262 | 0.0 | 0.0 | 0.00 | 0.00 | 0.00 | 72 | 1015.6 |
| 20260505073012 | 56 | 285 | 0.0 | 0.0 | 0.00 | 0.00 | 0.00 | 72 | 1015.5 |
| 20260505071518 | 56 | 285 | 0.0 | 0.0 | 0.00 | 0.00 | 0.00 | 71 | 1015.4 |
| 20260505070023 | 57 | 285 | 0.0 | 0.0 | 0.00 | 0.00 | 0.00 | 69 | 1015.4 |
| 20260505064533 | 57 | 294 | 0.0 | 0.0 | 0.00 | 0.00 | 0.00 | 69 | 1015.3 |
| 20260505063029 | 58 | 307 | 0.0 | 0.0 | 0.00 | 0.00 | 0.00 | 66 | 1015.3 |
| 20260505061518 | 59 | 307 | 0.0 | 0.9 | 0.00 | 0.00 | 0.00 | 64 | 1015.3 |
| 20260505060004 | 58 | 270 | 0.0 | 0.9 | 0.00 | 0.00 | 0.00 | 64 | 1015.4 |
| 20260505054512 | 57 | 283 | 0.0 | 0.0 | 0.00 | 0.00 | 0.00 | 65 | 1015.5 |
| 20260505053008 | 58 | 283 | 0.0 | 0.0 | 0.00 | 0.00 | 0.00 | 64 | 1015.7 |
| 20260505051512 | 59 | 283 | 0.0 | 0.0 | 0.00 | 0.00 | 0.00 | 62 | 1015.7 |
| 20260505041511 | 62 | 283 | 0.0 | 0.9 | 0.00 | 0.00 | 0.00 | 54 | 1016.0 |
| 20260505040018 | 62 | 281 | 0.0 | 0.9 | 0.00 | 0.00 | 0.00 | 54 | 1016.0 |
| 20260505034526 | 63 | 281 | 0.0 | 0.9 | 0.00 | 0.00 | 0.00 | 52 | 1016.0 |
| 20260505033022 | 63 | 255 | 0.0 | 1.7 | 0.00 | 0.00 | 0.00 | 53 | 1016.0 |
| 20260505031507 | 63 | 267 | 0.0 | 0.9 | 0.00 | 0.00 | 0.00 | 52 | 1015.9 |
| 20260505030032 | 63 | 264 | 0.0 | 0.9 | 0.00 | 0.00 | 0.00 | 52 | 1016.0 |
| 20260505024518 | 62 | 250 | 0.0 | 0.0 | 0.00 | 0.00 | 0.00 | 55 | 1016.0 |
| 20260505023022 | 62 | 250 | 0.0 | 0.0 | 0.00 | 0.00 | 0.00 | 57 | 1015.8 |
| 20260505021526 | 63 | 250 | 0.0 | 0.0 | 0.00 | 0.00 | 0.00 | 53 | 1015.8 |
| 20260505020010 | 63 | 250 | 0.0 | 0.0 | 0.00 | 0.00 | 0.00 | 51 | 1015.6 |
| 20260505014519 | 64 | 250 | 0.0 | 0.0 | 0.00 | 0.00 | 0.00 | 53 | 1015.5 |
| 20260505013020 | 65 | 250 | 0.0 | 0.0 | 0.00 | 0.00 | 0.00 | 51 | 1015.4 |
| 20260505011524 | 66 | 250 | 0.0 | 0.0 | 0.00 | 0.00 | 0.00 | 50 | 1015.4 |
| 20260505010026 | 67 | 250 | 0.0 | 0.0 | 0.00 | 0.00 | 0.00 | 46 | 1015.3 |
| 20260505004528 | 69 | 250 | 0.0 | 0.0 | 0.00 | 0.00 | 0.00 | 42 | 1015.2 |
| 20260505003013 | 70 | 250 | 0.0 | 0.9 | 0.00 | 0.00 | 0.00 | 40 | 1015.0 |
| 20260505001520 | 71 | 244 | 0.0 | 1.7 | 0.00 | 0.00 | 0.00 | 38 | 1014.9 |
| 20260505000023 | 72 | 279 | 0.9 | 2.6 | 0.00 | 0.00 | 0.00 | 38 | 1014.7 |
| 20260504234524 | 73 | 260 | 0.0 | 2.6 | 0.00 | 0.00 | 0.00 | 38 | 1014.5 |
| 20260504233028 | 74 | 300 | 0.0 | 2.6 | 0.00 | 0.00 | 0.00 | 36 | 1014.3 |
| 20260504231518 | 74 | 254 | 1.7 | 3.5 | 0.00 | 0.00 | 0.00 | 35 | 1014.3 |
| 20260504230024 | 74 | 245 | 0.0 | 1.7 | 0.00 | 0.00 | 0.00 | 36 | 1014.3 |
| 20260504224532 | 75 | 291 | 0.0 | 5.2 | 0.00 | 0.00 | 0.00 | 34 | 1014.3 |
| 20260504223025 | 75 | 308 | 0.0 | 2.6 | 0.00 | 0.00 | 0.00 | 34 | 1014.5 |
| 20260504221538 | 75 | 345 | 0.0 | 2.6 | 0.00 | 0.00 | 0.00 | 33 | 1014.6 |
| 20260504220020 | 75 | 262 | 0.0 | 3.5 | 0.00 | 0.00 | 0.00 | 34 | 1014.4 |
| 20260504214523 | 75 | 265 | 0.0 | 2.6 | 0.00 | 0.00 | 0.00 | 30 | 1014.5 |
| 20260504213021 | 76 | 323 | 0.9 | 2.6 | 0.00 | 0.00 | 0.00 | 29 | 1014.5 |
| 20260504211507 | 76 | 280 | 0.9 | 3.5 | 0.00 | 0.00 | 0.00 | 29 | 1014.4 |
| 20260504210004 | 77 | 250 | 0.9 | 4.3 | 0.00 | 0.00 | 0.00 | 28 | 1014.5 |
| 20260504204503 | 77 | 124 | 0.9 | 1.7 | 0.00 | 0.00 | 0.00 | 29 | 1014.6 |
| 20260504203004 | 78 | 276 | 0.0 | 3.5 | 0.00 | 0.00 | 0.00 | 29 | 1014.7 |